sensor_id;sensor_type;location;lat;lon;timestamp;temperature;humidity
42841;DHT22;28491;46.898;7.660;2023-04-24T00:02:12;10.00;31.10
42841;DHT22;28491;46.898;7.660;2023-04-24T00:04:38;10.00;44.00
42841;DHT22;28491;46.898;7.660;2023-04-24T00:07:06;9.90;49.20
42841;DHT22;28491;46.898;7.660;2023-04-24T00:09:32;9.90;47.90
42841;DHT22;28491;46.898;7.660;2023-04-24T00:11:58;9.90;40.20
42841;DHT22;28491;46.898;7.660;2023-04-24T00:14:24;9.90;37.70
42841;DHT22;28491;46.898;7.660;2023-04-24T00:16:49;9.90;28.60
42841;DHT22;28491;46.898;7.660;2023-04-24T00:19:15;9.80;39.80
42841;DHT22;28491;46.898;7.660;2023-04-24T00:21:41;9.80;41.40
42841;DHT22;28491;46.898;7.660;2023-04-24T00:24:07;9.80;41.60
42841;DHT22;28491;46.898;7.660;2023-04-24T00:26:34;9.80;36.80
42841;DHT22;28491;46.898;7.660;2023-04-24T00:29:00;9.80;30.30
42841;DHT22;28491;46.898;7.660;2023-04-24T00:31:25;9.70;42.90
42841;DHT22;28491;46.898;7.660;2023-04-24T00:33:51;9.60;56.20
42841;DHT22;28491;46.898;7.660;2023-04-24T00:36:16;9.60;45.50
42841;DHT22;28491;46.898;7.660;2023-04-24T00:38:42;9.50;54.70
42841;DHT22;28491;46.898;7.660;2023-04-24T00:41:07;9.40;61.20
42841;DHT22;28491;46.898;7.660;2023-04-24T00:43:33;9.30;61.50
42841;DHT22;28491;46.898;7.660;2023-04-24T00:45:58;9.20;61.70
42841;DHT22;28491;46.898;7.660;2023-04-24T00:48:26;9.30;62.90
42841;DHT22;28491;46.898;7.660;2023-04-24T00:50:52;9.20;63.40
42841;DHT22;28491;46.898;7.660;2023-04-24T00:53:18;9.10;63.90
42841;DHT22;28491;46.898;7.660;2023-04-24T00:55:44;9.10;65.40
42841;DHT22;28491;46.898;7.660;2023-04-24T00:58:10;9.10;66.40
42841;DHT22;28491;46.898;7.660;2023-04-24T01:00:36;9.10;62.20
42841;DHT22;28491;46.898;7.660;2023-04-24T01:03:04;9.20;61.40
42841;DHT22;28491;46.898;7.660;2023-04-24T01:05:31;9.20;62.10
42841;DHT22;28491;46.898;7.660;2023-04-24T01:07:58;9.20;61.80
42841;DHT22;28491;46.898;7.660;2023-04-24T01:10:25;9.20;60.90
42841;DHT22;28491;46.898;7.660;2023-04-24T01:12:53;9.00;60.40
42841;DHT22;28491;46.898;7.660;2023-04-24T01:15:18;9.00;56.50
42841;DHT22;28491;46.898;7.660;2023-04-24T01:17:44;9.00;60.80
42841;DHT22;28491;46.898;7.660;2023-04-24T01:20:10;9.00;60.30
42841;DHT22;28491;46.898;7.660;2023-04-24T01:22:36;9.10;60.50
42841;DHT22;28491;46.898;7.660;2023-04-24T01:25:02;9.00;60.40
42841;DHT22;28491;46.898;7.660;2023-04-24T01:27:28;9.00;61.20
42841;DHT22;28491;46.898;7.660;2023-04-24T01:29:54;9.00;61.60
42841;DHT22;28491;46.898;7.660;2023-04-24T01:32:20;9.00;62.00
42841;DHT22;28491;46.898;7.660;2023-04-24T01:34:46;9.10;60.30
42841;DHT22;28491;46.898;7.660;2023-04-24T01:37:12;9.10;55.00
42841;DHT22;28491;46.898;7.660;2023-04-24T01:39:38;9.10;46.90
42841;DHT22;28491;46.898;7.660;2023-04-24T01:42:04;9.10;50.20
42841;DHT22;28491;46.898;7.660;2023-04-24T01:44:30;9.10;43.90
42841;DHT22;28491;46.898;7.660;2023-04-24T01:46:56;9.10;34.80
42841;DHT22;28491;46.898;7.660;2023-04-24T01:49:22;9.00;49.00
42841;DHT22;28491;46.898;7.660;2023-04-24T01:51:47;8.90;51.60
42841;DHT22;28491;46.898;7.660;2023-04-24T01:54:13;8.80;55.80
42841;DHT22;28491;46.898;7.660;2023-04-24T01:56:43;8.80;60.30
42841;DHT22;28491;46.898;7.660;2023-04-24T01:59:10;8.70;51.80
42841;DHT22;28491;46.898;7.660;2023-04-24T02:01:36;8.60;60.10
42841;DHT22;28491;46.898;7.660;2023-04-24T02:04:02;8.60;60.50
42841;DHT22;28491;46.898;7.660;2023-04-24T02:06:28;8.60;59.20
42841;DHT22;28491;46.898;7.660;2023-04-24T02:08:53;8.50;54.90
42841;DHT22;28491;46.898;7.660;2023-04-24T02:11:19;8.60;41.90
42841;DHT22;28491;46.898;7.660;2023-04-24T02:13:44;8.60;37.90
42841;DHT22;28491;46.898;7.660;2023-04-24T02:16:10;8.70;34.00
42841;DHT22;28491;46.898;7.660;2023-04-24T02:18:36;8.70;29.20
42841;DHT22;28491;46.898;7.660;2023-04-24T02:21:02;8.70;34.60
42841;DHT22;28491;46.898;7.660;2023-04-24T02:23:27;8.70;37.20
42841;DHT22;28491;46.898;7.660;2023-04-24T02:25:53;8.60;37.70
42841;DHT22;28491;46.898;7.660;2023-04-24T02:28:19;8.60;46.40
42841;DHT22;28491;46.898;7.660;2023-04-24T02:30:45;8.60;49.70
42841;DHT22;28491;46.898;7.660;2023-04-24T02:33:11;8.60;58.50
42841;DHT22;28491;46.898;7.660;2023-04-24T02:35:36;8.60;59.70
42841;DHT22;28491;46.898;7.660;2023-04-24T02:38:02;8.60;55.70
42841;DHT22;28491;46.898;7.660;2023-04-24T02:40:28;8.60;53.00
42841;DHT22;28491;46.898;7.660;2023-04-24T02:42:54;8.60;55.30
42841;DHT22;28491;46.898;7.660;2023-04-24T02:45:19;8.70;42.60
42841;DHT22;28491;46.898;7.660;2023-04-24T02:47:45;8.70;48.40
42841;DHT22;28491;46.898;7.660;2023-04-24T02:50:10;8.70;45.50
42841;DHT22;28491;46.898;7.660;2023-04-24T02:52:36;8.80;42.90
42841;DHT22;28491;46.898;7.660;2023-04-24T02:55:01;8.80;34.10
42841;DHT22;28491;46.898;7.660;2023-04-24T02:57:27;8.70;36.90
42841;DHT22;28491;46.898;7.660;2023-04-24T02:59:52;8.70;40.80
42841;DHT22;28491;46.898;7.660;2023-04-24T03:02:18;8.60;45.80
42841;DHT22;28491;46.898;7.660;2023-04-24T03:04:44;8.60;51.10
42841;DHT22;28491;46.898;7.660;2023-04-24T03:07:09;8.60;53.40
42841;DHT22;28491;46.898;7.660;2023-04-24T03:09:35;8.60;46.30
42841;DHT22;28491;46.898;7.660;2023-04-24T03:12:00;8.60;56.50
42841;DHT22;28491;46.898;7.660;2023-04-24T03:14:26;8.60;53.20
42841;DHT22;28491;46.898;7.660;2023-04-24T03:16:51;8.60;51.80
42841;DHT22;28491;46.898;7.660;2023-04-24T03:19:17;8.60;57.60
42841;DHT22;28491;46.898;7.660;2023-04-24T03:21:42;8.60;56.70
42841;DHT22;28491;46.898;7.660;2023-04-24T03:24:08;8.50;60.50
42841;DHT22;28491;46.898;7.660;2023-04-24T03:26:34;8.50;61.00
42841;DHT22;28491;46.898;7.660;2023-04-24T03:29:00;8.50;58.70
42841;DHT22;28491;46.898;7.660;2023-04-24T03:31:26;8.50;59.20
42841;DHT22;28491;46.898;7.660;2023-04-24T03:33:51;8.40;60.80
42841;DHT22;28491;46.898;7.660;2023-04-24T03:36:17;8.50;62.00
42841;DHT22;28491;46.898;7.660;2023-04-24T03:38:44;8.40;64.80
42841;DHT22;28491;46.898;7.660;2023-04-24T03:41:10;8.40;64.80
42841;DHT22;28491;46.898;7.660;2023-04-24T03:43:36;8.40;64.90
42841;DHT22;28491;46.898;7.660;2023-04-24T03:46:02;8.40;64.00
42841;DHT22;28491;46.898;7.660;2023-04-24T03:48:28;8.40;61.70
42841;DHT22;28491;46.898;7.660;2023-04-24T03:50:53;8.40;62.70
42841;DHT22;28491;46.898;7.660;2023-04-24T03:53:19;8.40;63.20
42841;DHT22;28491;46.898;7.660;2023-04-24T03:55:45;8.40;63.30
42841;DHT22;28491;46.898;7.660;2023-04-24T03:58:11;8.40;64.90
42841;DHT22;28491;46.898;7.660;2023-04-24T04:00:37;8.20;64.70
42841;DHT22;28491;46.898;7.660;2023-04-24T04:03:03;8.30;67.50
42841;DHT22;28491;46.898;7.660;2023-04-24T04:05:29;8.30;67.40
42841;DHT22;28491;46.898;7.660;2023-04-24T04:07:54;8.30;67.20
42841;DHT22;28491;46.898;7.660;2023-04-24T04:10:20;8.40;68.30
42841;DHT22;28491;46.898;7.660;2023-04-24T04:12:46;8.40;66.70
42841;DHT22;28491;46.898;7.660;2023-04-24T04:15:11;8.50;65.00
42841;DHT22;28491;46.898;7.660;2023-04-24T04:17:37;8.50;63.50
42841;DHT22;28491;46.898;7.660;2023-04-24T04:20:04;8.70;62.70
42841;DHT22;28491;46.898;7.660;2023-04-24T04:22:34;8.70;64.40
42841;DHT22;28491;46.898;7.660;2023-04-24T04:24:59;8.70;66.30
42841;DHT22;28491;46.898;7.660;2023-04-24T04:27:25;8.70;65.70
42841;DHT22;28491;46.898;7.660;2023-04-24T04:29:52;8.70;66.90
42841;DHT22;28491;46.898;7.660;2023-04-24T04:32:17;8.60;67.80
42841;DHT22;28491;46.898;7.660;2023-04-24T04:34:43;8.60;67.70
42841;DHT22;28491;46.898;7.660;2023-04-24T04:37:10;8.60;68.20
42841;DHT22;28491;46.898;7.660;2023-04-24T04:39:38;8.60;65.80
42841;DHT22;28491;46.898;7.660;2023-04-24T04:42:03;8.70;64.80
42841;DHT22;28491;46.898;7.660;2023-04-24T04:44:29;8.80;64.10
42841;DHT22;28491;46.898;7.660;2023-04-24T04:46:56;8.70;63.80
42841;DHT22;28491;46.898;7.660;2023-04-24T04:49:22;8.80;64.70
42841;DHT22;28491;46.898;7.660;2023-04-24T04:51:49;8.80;65.20
42841;DHT22;28491;46.898;7.660;2023-04-24T04:54:16;8.80;63.90
42841;DHT22;28491;46.898;7.660;2023-04-24T04:56:41;8.80;63.90
42841;DHT22;28491;46.898;7.660;2023-04-24T04:59:07;8.80;63.40
42841;DHT22;28491;46.898;7.660;2023-04-24T05:01:32;8.70;64.10
42841;DHT22;28491;46.898;7.660;2023-04-24T05:03:58;8.70;64.30
42841;DHT22;28491;46.898;7.660;2023-04-24T05:06:23;8.70;64.40
42841;DHT22;28491;46.898;7.660;2023-04-24T05:08:49;8.70;64.20
42841;DHT22;28491;46.898;7.660;2023-04-24T05:11:15;8.70;63.80
42841;DHT22;28491;46.898;7.660;2023-04-24T05:13:40;8.70;64.10
42841;DHT22;28491;46.898;7.660;2023-04-24T05:16:06;8.70;64.50
42841;DHT22;28491;46.898;7.660;2023-04-24T05:18:32;8.70;64.40
42841;DHT22;28491;46.898;7.660;2023-04-24T05:20:57;8.70;63.30
42841;DHT22;28491;46.898;7.660;2023-04-24T05:23:23;8.70;62.60
42841;DHT22;28491;46.898;7.660;2023-04-24T05:25:48;8.60;63.60
42841;DHT22;28491;46.898;7.660;2023-04-24T05:28:14;8.70;64.30
42841;DHT22;28491;46.898;7.660;2023-04-24T05:30:40;8.70;63.80
42841;DHT22;28491;46.898;7.660;2023-04-24T05:33:06;8.60;62.90
42841;DHT22;28491;46.898;7.660;2023-04-24T05:35:31;8.70;61.90
42841;DHT22;28491;46.898;7.660;2023-04-24T05:37:57;8.80;61.20
42841;DHT22;28491;46.898;7.660;2023-04-24T05:40:22;8.90;62.00
42841;DHT22;28491;46.898;7.660;2023-04-24T05:42:48;8.90;61.70
42841;DHT22;28491;46.898;7.660;2023-04-24T05:45:13;8.90;62.00
42841;DHT22;28491;46.898;7.660;2023-04-24T05:47:45;9.10;61.20
42841;DHT22;28491;46.898;7.660;2023-04-24T05:50:11;9.10;61.00
42841;DHT22;28491;46.898;7.660;2023-04-24T05:52:37;9.10;61.00
42841;DHT22;28491;46.898;7.660;2023-04-24T05:55:02;9.20;60.40
42841;DHT22;28491;46.898;7.660;2023-04-24T05:57:28;9.20;60.00
42841;DHT22;28491;46.898;7.660;2023-04-24T05:59:53;9.70;56.40
42841;DHT22;28491;46.898;7.660;2023-04-24T06:02:19;9.90;43.90
42841;DHT22;28491;46.898;7.660;2023-04-24T06:04:45;10.20;26.30
42841;DHT22;28491;46.898;7.660;2023-04-24T06:07:11;10.90;13.50
42841;DHT22;28491;46.898;7.660;2023-04-24T06:09:36;11.60;1.00
42841;DHT22;28491;46.898;7.660;2023-04-24T06:12:02;12.10;1.00
42841;DHT22;28491;46.898;7.660;2023-04-24T06:14:28;13.00;1.00
42841;DHT22;28491;46.898;7.660;2023-04-24T06:16:53;13.90;1.00
42841;DHT22;28491;46.898;7.660;2023-04-24T06:19:19;13.90;1.00
42841;DHT22;28491;46.898;7.660;2023-04-24T06:21:44;13.60;1.00
42841;DHT22;28491;46.898;7.660;2023-04-24T06:24:10;13.10;1.00
42841;DHT22;28491;46.898;7.660;2023-04-24T06:26:35;12.20;1.00
42841;DHT22;28491;46.898;7.660;2023-04-24T06:29:01;11.70;1.00
42841;DHT22;28491;46.898;7.660;2023-04-24T06:31:27;11.50;1.00
42841;DHT22;28491;46.898;7.660;2023-04-24T06:33:52;12.00;1.00
42841;DHT22;28491;46.898;7.660;2023-04-24T06:36:18;12.00;1.00
42841;DHT22;28491;46.898;7.660;2023-04-24T06:38:43;11.90;1.00
42841;DHT22;28491;46.898;7.660;2023-04-24T06:41:10;11.70;1.00
42841;DHT22;28491;46.898;7.660;2023-04-24T06:43:35;11.50;1.00
42841;DHT22;28491;46.898;7.660;2023-04-24T06:46:01;11.40;1.00
42841;DHT22;28491;46.898;7.660;2023-04-24T06:48:28;11.30;1.00
42841;DHT22;28491;46.898;7.660;2023-04-24T06:50:54;11.30;1.00
42841;DHT22;28491;46.898;7.660;2023-04-24T06:53:19;11.20;1.00
42841;DHT22;28491;46.898;7.660;2023-04-24T06:55:45;11.00;1.00
42841;DHT22;28491;46.898;7.660;2023-04-24T06:58:11;10.70;1.00
42841;DHT22;28491;46.898;7.660;2023-04-24T07:00:37;10.60;1.00
42841;DHT22;28491;46.898;7.660;2023-04-24T07:03:03;10.60;4.10
42841;DHT22;28491;46.898;7.660;2023-04-24T07:05:30;10.60;3.30
42841;DHT22;28491;46.898;7.660;2023-04-24T07:07:56;12.40;1.00
42841;DHT22;28491;46.898;7.660;2023-04-24T07:10:23;14.50;1.00
42841;DHT22;28491;46.898;7.660;2023-04-24T07:12:49;14.50;1.00
42841;DHT22;28491;46.898;7.660;2023-04-24T07:15:15;13.90;1.00
42841;DHT22;28491;46.898;7.660;2023-04-24T07:17:41;13.00;1.00
42841;DHT22;28491;46.898;7.660;2023-04-24T07:20:10;12.40;1.00
42841;DHT22;28491;46.898;7.660;2023-04-24T07:22:37;11.90;1.00
42841;DHT22;28491;46.898;7.660;2023-04-24T07:25:02;11.80;1.00
42841;DHT22;28491;46.898;7.660;2023-04-24T07:27:28;11.70;1.00
42841;DHT22;28491;46.898;7.660;2023-04-24T07:29:53;11.60;1.00
42841;DHT22;28491;46.898;7.660;2023-04-24T07:32:19;11.40;1.00
42841;DHT22;28491;46.898;7.660;2023-04-24T07:34:44;11.10;1.00
42841;DHT22;28491;46.898;7.660;2023-04-24T07:37:10;11.10;1.00
42841;DHT22;28491;46.898;7.660;2023-04-24T07:39:36;11.00;1.00
42841;DHT22;28491;46.898;7.660;2023-04-24T07:42:01;11.00;1.00
42841;DHT22;28491;46.898;7.660;2023-04-24T07:44:27;11.00;1.00
42841;DHT22;28491;46.898;7.660;2023-04-24T07:46:53;10.90;1.00
42841;DHT22;28491;46.898;7.660;2023-04-24T07:49:18;10.90;1.00
42841;DHT22;28491;46.898;7.660;2023-04-24T07:51:44;10.70;1.00
42841;DHT22;28491;46.898;7.660;2023-04-24T07:54:10;10.70;1.00
42841;DHT22;28491;46.898;7.660;2023-04-24T07:56:36;10.80;1.00
42841;DHT22;28491;46.898;7.660;2023-04-24T07:59:04;11.00;1.00
42841;DHT22;28491;46.898;7.660;2023-04-24T08:01:30;11.30;1.00
42841;DHT22;28491;46.898;7.660;2023-04-24T08:03:55;11.60;1.00
42841;DHT22;28491;46.898;7.660;2023-04-24T08:06:21;11.70;1.00
42841;DHT22;28491;46.898;7.660;2023-04-24T08:08:47;11.90;1.00
42841;DHT22;28491;46.898;7.660;2023-04-24T08:11:12;12.00;1.00
42841;DHT22;28491;46.898;7.660;2023-04-24T08:13:37;12.10;1.00
42841;DHT22;28491;46.898;7.660;2023-04-24T08:16:03;12.00;1.00
42841;DHT22;28491;46.898;7.660;2023-04-24T08:18:29;11.90;1.00
42841;DHT22;28491;46.898;7.660;2023-04-24T08:20:54;11.50;1.00
42841;DHT22;28491;46.898;7.660;2023-04-24T08:23:20;11.30;1.00
42841;DHT22;28491;46.898;7.660;2023-04-24T08:25:45;11.30;1.00
42841;DHT22;28491;46.898;7.660;2023-04-24T08:28:11;11.30;1.00
42841;DHT22;28491;46.898;7.660;2023-04-24T08:30:36;11.40;1.00
42841;DHT22;28491;46.898;7.660;2023-04-24T08:33:03;11.40;1.00
42841;DHT22;28491;46.898;7.660;2023-04-24T08:35:29;11.20;1.00
42841;DHT22;28491;46.898;7.660;2023-04-24T08:37:54;11.00;1.00
42841;DHT22;28491;46.898;7.660;2023-04-24T08:40:25;10.90;1.00
42841;DHT22;28491;46.898;7.660;2023-04-24T08:42:54;10.80;1.00
42841;DHT22;28491;46.898;7.660;2023-04-24T08:45:20;10.70;1.00
42841;DHT22;28491;46.898;7.660;2023-04-24T08:47:46;10.60;1.00
42841;DHT22;28491;46.898;7.660;2023-04-24T08:50:13;10.40;1.00
42841;DHT22;28491;46.898;7.660;2023-04-24T08:52:38;10.30;1.00
42841;DHT22;28491;46.898;7.660;2023-04-24T08:55:05;10.20;1.00
42841;DHT22;28491;46.898;7.660;2023-04-24T08:57:32;10.20;1.00
42841;DHT22;28491;46.898;7.660;2023-04-24T08:59:58;10.20;1.00
42841;DHT22;28491;46.898;7.660;2023-04-24T09:02:24;10.20;2.00
42841;DHT22;28491;46.898;7.660;2023-04-24T09:04:51;10.40;6.40
42841;DHT22;28491;46.898;7.660;2023-04-24T09:07:19;10.60;1.00
42841;DHT22;28491;46.898;7.660;2023-04-24T09:09:45;10.70;1.00
42841;DHT22;28491;46.898;7.660;2023-04-24T09:12:11;10.60;1.00
42841;DHT22;28491;46.898;7.660;2023-04-24T09:14:37;10.50;1.00
42841;DHT22;28491;46.898;7.660;2023-04-24T09:17:07;10.50;1.00
42841;DHT22;28491;46.898;7.660;2023-04-24T09:19:33;10.40;1.00
42841;DHT22;28491;46.898;7.660;2023-04-24T09:21:59;10.50;1.00
42841;DHT22;28491;46.898;7.660;2023-04-24T09:24:24;10.40;1.00
42841;DHT22;28491;46.898;7.660;2023-04-24T09:26:57;10.30;1.00
42841;DHT22;28491;46.898;7.660;2023-04-24T09:29:24;10.30;1.00
42841;DHT22;28491;46.898;7.660;2023-04-24T09:31:49;10.30;1.00
42841;DHT22;28491;46.898;7.660;2023-04-24T09:34:21;10.40;1.00
42841;DHT22;28491;46.898;7.660;2023-04-24T09:36:48;10.50;1.00
42841;DHT22;28491;46.898;7.660;2023-04-24T09:39:15;10.40;1.00
42841;DHT22;28491;46.898;7.660;2023-04-24T09:44:16;10.20;1.00
42841;DHT22;28491;46.898;7.660;2023-04-24T09:46:44;10.10;1.00
42841;DHT22;28491;46.898;7.660;2023-04-24T09:49:13;10.10;1.00
42841;DHT22;28491;46.898;7.660;2023-04-24T09:51:40;10.10;1.00
42841;DHT22;28491;46.898;7.660;2023-04-24T09:54:26;10.30;1.00
42841;DHT22;28491;46.898;7.660;2023-04-24T09:56:51;10.40;1.00
42841;DHT22;28491;46.898;7.660;2023-04-24T09:59:19;10.70;1.00
42841;DHT22;28491;46.898;7.660;2023-04-24T10:01:44;11.00;1.00
42841;DHT22;28491;46.898;7.660;2023-04-24T10:04:26;11.10;1.00
42841;DHT22;28491;46.898;7.660;2023-04-24T10:06:53;11.20;1.00
42841;DHT22;28491;46.898;7.660;2023-04-24T10:09:21;11.40;1.00
42841;DHT22;28491;46.898;7.660;2023-04-24T10:11:51;11.50;1.00
42841;DHT22;28491;46.898;7.660;2023-04-24T10:14:20;12.00;1.00
42841;DHT22;28491;46.898;7.660;2023-04-24T10:16:47;12.30;1.00
42841;DHT22;28491;46.898;7.660;2023-04-24T10:19:13;12.50;1.00
42841;DHT22;28491;46.898;7.660;2023-04-24T10:21:41;12.60;1.00
42841;DHT22;28491;46.898;7.660;2023-04-24T10:24:10;12.80;1.00
42841;DHT22;28491;46.898;7.660;2023-04-24T10:26:36;13.10;1.00
42841;DHT22;28491;46.898;7.660;2023-04-24T10:29:05;14.00;1.00
42841;DHT22;28491;46.898;7.660;2023-04-24T10:31:35;14.30;1.00
42841;DHT22;28491;46.898;7.660;2023-04-24T10:34:01;14.00;1.00
42841;DHT22;28491;46.898;7.660;2023-04-24T10:36:28;13.80;1.00
42841;DHT22;28491;46.898;7.660;2023-04-24T10:38:59;13.50;1.00
42841;DHT22;28491;46.898;7.660;2023-04-24T10:41:26;13.20;1.00
42841;DHT22;28491;46.898;7.660;2023-04-24T10:44:12;13.50;1.00
42841;DHT22;28491;46.898;7.660;2023-04-24T10:46:39;14.00;1.00
42841;DHT22;28491;46.898;7.660;2023-04-24T10:49:07;13.90;1.00
42841;DHT22;28491;46.898;7.660;2023-04-24T10:51:51;13.60;1.00
42841;DHT22;28491;46.898;7.660;2023-04-24T10:59:48;12.70;1.00
42841;DHT22;28491;46.898;7.660;2023-04-24T11:02:17;12.70;1.00
42841;DHT22;28491;46.898;7.660;2023-04-24T11:04:44;12.60;1.00
42841;DHT22;28491;46.898;7.660;2023-04-24T11:07:10;12.40;1.00
42841;DHT22;28491;46.898;7.660;2023-04-24T11:09:36;12.20;1.00
42841;DHT22;28491;46.898;7.660;2023-04-24T11:12:12;12.20;1.00
42841;DHT22;28491;46.898;7.660;2023-04-24T11:17:34;12.80;1.00
42841;DHT22;28491;46.898;7.660;2023-04-24T11:20:15;13.10;1.00
42841;DHT22;28491;46.898;7.660;2023-04-24T11:22:41;13.30;1.00
42841;DHT22;28491;46.898;7.660;2023-04-24T11:25:07;13.50;1.00
42841;DHT22;28491;46.898;7.660;2023-04-24T11:27:43;13.20;1.00
42841;DHT22;28491;46.898;7.660;2023-04-24T11:30:10;13.10;1.00
42841;DHT22;28491;46.898;7.660;2023-04-24T11:32:38;12.80;1.00
42841;DHT22;28491;46.898;7.660;2023-04-24T11:35:15;12.50;1.00
42841;DHT22;28491;46.898;7.660;2023-04-24T11:37:49;12.40;1.00
42841;DHT22;28491;46.898;7.660;2023-04-24T11:40:16;12.50;1.00
42841;DHT22;28491;46.898;7.660;2023-04-24T11:42:43;12.70;1.00
42841;DHT22;28491;46.898;7.660;2023-04-24T11:47:36;13.30;1.00
42841;DHT22;28491;46.898;7.660;2023-04-24T11:50:04;13.30;1.00
42841;DHT22;28491;46.898;7.660;2023-04-24T11:52:30;13.10;1.00
42841;DHT22;28491;46.898;7.660;2023-04-24T11:54:56;12.90;1.00
42841;DHT22;28491;46.898;7.660;2023-04-24T11:57:24;12.60;1.00
42841;DHT22;28491;46.898;7.660;2023-04-24T11:59:51;12.40;1.00
42841;DHT22;28491;46.898;7.660;2023-04-24T12:02:24;12.40;1.00
42841;DHT22;28491;46.898;7.660;2023-04-24T12:04:51;12.30;1.00
42841;DHT22;28491;46.898;7.660;2023-04-24T12:07:16;12.50;1.00
42841;DHT22;28491;46.898;7.660;2023-04-24T12:09:47;12.70;1.00
42841;DHT22;28491;46.898;7.660;2023-04-24T12:12:14;12.90;1.00
42841;DHT22;28491;46.898;7.660;2023-04-24T12:14:51;13.70;1.00
42841;DHT22;28491;46.898;7.660;2023-04-24T12:17:17;14.00;1.00
42841;DHT22;28491;46.898;7.660;2023-04-24T12:19:48;13.80;1.00
42841;DHT22;28491;46.898;7.660;2023-04-24T12:22:16;13.40;1.00
42841;DHT22;28491;46.898;7.660;2023-04-24T12:24:58;13.20;1.00
42841;DHT22;28491;46.898;7.660;2023-04-24T12:27:25;12.90;1.00
42841;DHT22;28491;46.898;7.660;2023-04-24T12:29:56;12.50;1.00
42841;DHT22;28491;46.898;7.660;2023-04-24T12:32:22;11.80;1.00
42841;DHT22;28491;46.898;7.660;2023-04-24T12:34:49;11.20;1.00
42841;DHT22;28491;46.898;7.660;2023-04-24T12:37:16;10.80;1.00
42841;DHT22;28491;46.898;7.660;2023-04-24T12:40:07;10.60;19.90
42841;DHT22;28491;46.898;7.660;2023-04-24T12:42:34;10.60;32.60
42841;DHT22;28491;46.898;7.660;2023-04-24T12:45:04;10.90;46.60
42841;DHT22;28491;46.898;7.660;2023-04-24T12:47:31;11.40;58.90
42841;DHT22;28491;46.898;7.660;2023-04-24T12:49:57;11.60;27.60
42841;DHT22;28491;46.898;7.660;2023-04-24T12:52:23;12.00;21.30
42841;DHT22;28491;46.898;7.660;2023-04-24T12:54:50;12.20;19.90
42841;DHT22;28491;46.898;7.660;2023-04-24T12:57:16;12.40;1.00
42841;DHT22;28491;46.898;7.660;2023-04-24T12:59:42;12.50;1.00
42841;DHT22;28491;46.898;7.660;2023-04-24T13:02:08;12.60;1.00
42841;DHT22;28491;46.898;7.660;2023-04-24T13:04:35;12.60;1.00
42841;DHT22;28491;46.898;7.660;2023-04-24T13:07:01;12.60;1.00
42841;DHT22;28491;46.898;7.660;2023-04-24T13:09:26;12.90;1.00
42841;DHT22;28491;46.898;7.660;2023-04-24T13:11:52;13.40;6.00
42841;DHT22;28491;46.898;7.660;2023-04-24T13:14:17;13.40;1.00
42841;DHT22;28491;46.898;7.660;2023-04-24T13:16:43;13.30;1.00
42841;DHT22;28491;46.898;7.660;2023-04-24T13:19:08;13.40;1.00
42841;DHT22;28491;46.898;7.660;2023-04-24T13:21:34;13.50;1.00
42841;DHT22;28491;46.898;7.660;2023-04-24T13:24:00;13.70;1.00
42841;DHT22;28491;46.898;7.660;2023-04-24T13:26:25;13.90;1.00
42841;DHT22;28491;46.898;7.660;2023-04-24T13:28:51;13.90;1.00
42841;DHT22;28491;46.898;7.660;2023-04-24T13:31:16;13.60;1.00
42841;DHT22;28491;46.898;7.660;2023-04-24T13:33:42;13.40;1.00
42841;DHT22;28491;46.898;7.660;2023-04-24T13:36:08;13.30;1.00
42841;DHT22;28491;46.898;7.660;2023-04-24T13:38:33;13.50;1.00
42841;DHT22;28491;46.898;7.660;2023-04-24T13:40:59;13.60;1.00
42841;DHT22;28491;46.898;7.660;2023-04-24T13:43:25;13.50;1.00
42841;DHT22;28491;46.898;7.660;2023-04-24T13:45:50;13.50;1.00
42841;DHT22;28491;46.898;7.660;2023-04-24T13:48:16;13.50;1.00
42841;DHT22;28491;46.898;7.660;2023-04-24T13:50:42;13.30;1.00
42841;DHT22;28491;46.898;7.660;2023-04-24T13:53:08;13.20;1.00
42841;DHT22;28491;46.898;7.660;2023-04-24T13:55:33;13.30;1.00
42841;DHT22;28491;46.898;7.660;2023-04-24T13:57:59;13.50;1.00
42841;DHT22;28491;46.898;7.660;2023-04-24T14:00:26;13.80;1.00
42841;DHT22;28491;46.898;7.660;2023-04-24T14:02:52;14.10;1.00
42841;DHT22;28491;46.898;7.660;2023-04-24T14:05:18;14.10;1.00
42841;DHT22;28491;46.898;7.660;2023-04-24T14:07:43;14.20;1.00
42841;DHT22;28491;46.898;7.660;2023-04-24T14:10:09;14.00;1.00
42841;DHT22;28491;46.898;7.660;2023-04-24T14:12:35;14.30;1.00
42841;DHT22;28491;46.898;7.660;2023-04-24T14:15:01;14.40;1.00
42841;DHT22;28491;46.898;7.660;2023-04-24T14:17:27;14.60;1.00
42841;DHT22;28491;46.898;7.660;2023-04-24T14:19:52;14.50;1.00
42841;DHT22;28491;46.898;7.660;2023-04-24T14:22:21;14.30;1.00
42841;DHT22;28491;46.898;7.660;2023-04-24T14:24:47;14.10;1.00
42841;DHT22;28491;46.898;7.660;2023-04-24T14:27:12;13.90;1.00
42841;DHT22;28491;46.898;7.660;2023-04-24T14:29:38;13.80;1.00
42841;DHT22;28491;46.898;7.660;2023-04-24T14:32:03;13.60;1.00
42841;DHT22;28491;46.898;7.660;2023-04-24T14:34:29;13.50;1.00
42841;DHT22;28491;46.898;7.660;2023-04-24T14:36:54;13.40;1.00
42841;DHT22;28491;46.898;7.660;2023-04-24T14:39:20;13.20;1.00
42841;DHT22;28491;46.898;7.660;2023-04-24T14:41:45;13.20;1.00
42841;DHT22;28491;46.898;7.660;2023-04-24T14:44:11;13.30;1.00
42841;DHT22;28491;46.898;7.660;2023-04-24T14:46:37;13.50;1.00
42841;DHT22;28491;46.898;7.660;2023-04-24T14:49:02;13.80;1.00
42841;DHT22;28491;46.898;7.660;2023-04-24T14:51:28;13.90;1.00
42841;DHT22;28491;46.898;7.660;2023-04-24T14:53:53;13.80;1.00
42841;DHT22;28491;46.898;7.660;2023-04-24T14:56:19;13.70;1.00
42841;DHT22;28491;46.898;7.660;2023-04-24T14:58:44;13.70;1.00
42841;DHT22;28491;46.898;7.660;2023-04-24T15:01:10;13.80;1.00
42841;DHT22;28491;46.898;7.660;2023-04-24T15:03:36;14.00;1.00
42841;DHT22;28491;46.898;7.660;2023-04-24T15:06:01;14.20;1.00
42841;DHT22;28491;46.898;7.660;2023-04-24T15:08:27;14.10;1.00
42841;DHT22;28491;46.898;7.660;2023-04-24T15:10:53;14.10;1.00
42841;DHT22;28491;46.898;7.660;2023-04-24T15:13:18;14.30;1.00
42841;DHT22;28491;46.898;7.660;2023-04-24T15:15:46;14.50;1.00
42841;DHT22;28491;46.898;7.660;2023-04-24T15:18:11;14.60;1.00
42841;DHT22;28491;46.898;7.660;2023-04-24T15:20:37;14.50;1.00
42841;DHT22;28491;46.898;7.660;2023-04-24T15:23:08;14.60;1.00
42841;DHT22;28491;46.898;7.660;2023-04-24T15:25:34;14.50;1.00
42841;DHT22;28491;46.898;7.660;2023-04-24T15:27:59;14.50;1.00
42841;DHT22;28491;46.898;7.660;2023-04-24T15:30:26;14.40;1.00
42841;DHT22;28491;46.898;7.660;2023-04-24T15:32:51;14.30;1.00
42841;DHT22;28491;46.898;7.660;2023-04-24T15:35:17;14.40;1.00
42841;DHT22;28491;46.898;7.660;2023-04-24T15:37:43;14.40;1.00
42841;DHT22;28491;46.898;7.660;2023-04-24T15:40:09;14.50;1.00
42841;DHT22;28491;46.898;7.660;2023-04-24T15:42:36;14.50;1.00
42841;DHT22;28491;46.898;7.660;2023-04-24T15:45:02;14.60;1.00
42841;DHT22;28491;46.898;7.660;2023-04-24T15:47:28;14.60;1.00
42841;DHT22;28491;46.898;7.660;2023-04-24T15:49:55;14.50;1.00
42841;DHT22;28491;46.898;7.660;2023-04-24T15:52:22;14.40;1.00
42841;DHT22;28491;46.898;7.660;2023-04-24T15:54:47;14.40;1.00